sensor_id;sensor_type;location;lat;lon;timestamp;pressure;altitude;pressure_sealevel;temperature;humidity
70521;BME280;58442;52.716;23.560;2023-04-06T00:01:30;101849.13;;;2.03;58.90
70521;BME280;58442;52.716;23.560;2023-04-06T00:03:40;101848.34;;;2.03;58.90
70521;BME280;58442;52.716;23.560;2023-04-06T00:05:42;101844.04;;;2.02;58.97
70521;BME280;58442;52.716;23.560;2023-04-06T00:07:43;101850.74;;;1.99;59.01
70521;BME280;58442;52.716;23.560;2023-04-06T00:09:45;101843.75;;;1.98;59.05
70521;BME280;58442;52.716;23.560;2023-04-06T00:11:55;101841.07;;;1.98;59.08
70521;BME280;58442;52.716;23.560;2023-04-06T00:13:58;101843.21;;;1.96;59.15
70521;BME280;58442;52.716;23.560;2023-04-06T00:16:00;101837.05;;;1.96;59.19
70521;BME280;58442;52.716;23.560;2023-04-06T00:18:02;101835.17;;;1.96;59.22
70521;BME280;58442;52.716;23.560;2023-04-06T00:20:11;101829.27;;;1.94;59.28
70521;BME280;58442;52.716;23.560;2023-04-06T00:22:12;101833.02;;;1.93;59.38
70521;BME280;58442;52.716;23.560;2023-04-06T00:24:13;101830.58;;;1.91;59.42
70521;BME280;58442;52.716;23.560;2023-04-06T00:26:15;101834.07;;;1.92;59.45
70521;BME280;58442;52.716;23.560;2023-04-06T00:28:25;101829.78;;;1.91;59.48
70521;BME280;58442;52.716;23.560;2023-04-06T00:30:27;101824.98;;;1.93;59.52
70521;BME280;58442;52.716;23.560;2023-04-06T00:32:28;101828.20;;;1.95;59.48
70521;BME280;58442;52.716;23.560;2023-04-06T00:34:30;101825.52;;;1.95;59.47
70521;BME280;58442;52.716;23.560;2023-04-06T00:36:40;101813.99;;;1.95;59.50
70521;BME280;58442;52.716;23.560;2023-04-06T00:38:42;101816.95;;;1.93;59.61
70521;BME280;58442;52.716;23.560;2023-04-06T00:40:44;101811.59;;;1.93;59.63
70521;BME280;58442;52.716;23.560;2023-04-06T00:42:45;101812.38;;;1.94;59.61
70521;BME280;58442;52.716;23.560;2023-04-06T00:44:57;101817.48;;;1.95;59.62
70521;BME280;58442;52.716;23.560;2023-04-06T00:47:00;101813.73;;;1.96;59.64
70521;BME280;58442;52.716;23.560;2023-04-06T00:49:01;101816.41;;;1.96;59.64
70521;BME280;58442;52.716;23.560;2023-04-06T00:51:03;101810.51;;;1.94;59.71
70521;BME280;58442;52.716;23.560;2023-04-06T00:53:10;101811.82;;;1.91;59.81
70521;BME280;58442;52.716;23.560;2023-04-06T00:55:12;101801.90;;;1.92;59.89
70521;BME280;58442;52.716;23.560;2023-04-06T00:57:14;101794.43;;;1.94;59.91
70521;BME280;58442;52.716;23.560;2023-04-06T00:59:15;101801.39;;;1.95;59.89
70521;BME280;58442;52.716;23.560;2023-04-06T01:01:25;101800.59;;;1.95;59.93
70521;BME280;58442;52.716;23.560;2023-04-06T01:03:27;101797.64;;;1.96;59.96
70521;BME280;58442;52.716;23.560;2023-04-06T01:05:28;101801.39;;;1.95;59.99
70521;BME280;58442;52.716;23.560;2023-04-06T01:07:30;101797.91;;;1.95;60.05
70521;BME280;58442;52.716;23.560;2023-04-06T01:09:40;101804.34;;;1.94;60.10
70521;BME280;58442;52.716;23.560;2023-04-06T01:11:43;101800.59;;;1.95;60.16
70521;BME280;58442;52.716;23.560;2023-04-06T01:13:44;101794.16;;;1.96;60.23
70521;BME280;58442;52.716;23.560;2023-04-06T01:15:46;101799.24;;;1.97;60.20
70521;BME280;58442;52.716;23.560;2023-04-06T01:17:55;101789.86;;;1.95;60.26
70521;BME280;58442;52.716;23.560;2023-04-06T01:19:57;101789.86;;;1.95;60.34
70521;BME280;58442;52.716;23.560;2023-04-06T01:21:58;101789.32;;;1.98;60.34
70521;BME280;58442;52.716;23.560;2023-04-06T01:24:00;101790.70;;;2.00;60.30
70521;BME280;58442;52.716;23.560;2023-04-06T01:26:11;101783.45;;;2.01;60.32
70521;BME280;58442;52.716;23.560;2023-04-06T01:28:12;101777.83;;;2.02;60.33
70521;BME280;58442;52.716;23.560;2023-04-06T01:30:14;101770.31;;;2.04;60.31
70521;BME280;58442;52.716;23.560;2023-04-06T01:32:16;101770.05;;;2.06;60.30
70521;BME280;58442;52.716;23.560;2023-04-06T01:34:25;101770.88;;;2.06;60.31
70521;BME280;58442;52.716;23.560;2023-04-06T01:36:27;101771.41;;;2.08;60.31
70521;BME280;58442;52.716;23.560;2023-04-06T01:38:28;101764.44;;;2.07;60.33
70521;BME280;58442;52.716;23.560;2023-04-06T01:40:30;101763.88;;;2.05;60.41
70521;BME280;58442;52.716;23.560;2023-04-06T01:42:40;101759.59;;;2.04;60.50
70521;BME280;58442;52.716;23.560;2023-04-06T01:44:43;101762.80;;;2.01;60.60
70521;BME280;58442;52.716;23.560;2023-04-06T01:46:45;101749.92;;;1.98;60.72
70521;BME280;58442;52.716;23.560;2023-04-06T01:48:46;101754.23;;;1.99;60.72
70521;BME280;58442;52.716;23.560;2023-04-06T01:50:55;101742.97;;;2.02;60.68
70521;BME280;58442;52.716;23.560;2023-04-06T01:52:57;101738.94;;;2.05;60.68
70521;BME280;58442;52.716;23.560;2023-04-06T01:54:58;101744.07;;;2.06;60.69
70521;BME280;58442;52.716;23.560;2023-04-06T01:57:00;101741.11;;;2.08;60.70
70521;BME280;58442;52.716;23.560;2023-04-06T01:59:10;101740.30;;;2.07;60.70
70521;BME280;58442;52.716;23.560;2023-04-06T02:01:12;101743.23;;;2.06;60.78
70521;BME280;58442;52.716;23.560;2023-04-06T02:03:13;101728.22;;;2.05;60.85
70521;BME280;58442;52.716;23.560;2023-04-06T02:05:16;101720.72;;;2.02;60.93
70521;BME280;58442;52.716;23.560;2023-04-06T02:07:25;101731.45;;;2.02;61.02
70521;BME280;58442;52.716;23.560;2023-04-06T02:09:27;101731.16;;;1.98;61.13
70521;BME280;58442;52.716;23.560;2023-04-06T02:11:28;101722.85;;;1.95;61.24
70521;BME280;58442;52.716;23.560;2023-04-06T02:13:30;101720.16;;;1.89;61.35
70521;BME280;58442;52.716;23.560;2023-04-06T02:15:41;101718.25;;;1.85;61.61
70521;BME280;58442;52.716;23.560;2023-04-06T02:17:42;101719.88;;;1.86;61.63
70521;BME280;58442;52.716;23.560;2023-04-06T02:19:44;101713.96;;;1.84;61.70
70521;BME280;58442;52.716;23.560;2023-04-06T02:21:45;101712.36;;;1.83;61.74
70521;BME280;58442;52.716;23.560;2023-04-06T02:23:56;101708.34;;;1.80;61.90
70521;BME280;58442;52.716;23.560;2023-04-06T02:25:57;101701.63;;;1.78;62.03
70521;BME280;58442;52.716;23.560;2023-04-06T02:27:58;101697.61;;;1.75;62.27
70521;BME280;58442;52.716;23.560;2023-04-06T02:30:00;101697.08;;;1.73;62.25
70521;BME280;58442;52.716;23.560;2023-04-06T02:32:11;101702.13;;;1.70;62.40
70521;BME280;58442;52.716;23.560;2023-04-06T02:34:12;101698.12;;;1.67;63.02
70521;BME280;58442;52.716;23.560;2023-04-06T02:36:18;101702.12;;;1.64;62.79
70521;BME280;58442;52.716;23.560;2023-04-06T02:38:19;101701.59;;;1.62;62.85
70521;BME280;58442;52.716;23.560;2023-04-06T02:40:26;101693.81;;;1.61;62.94
70521;BME280;58442;52.716;23.560;2023-04-06T02:42:27;101693.02;;;1.60;63.03
70521;BME280;58442;52.716;23.560;2023-04-06T02:44:29;101698.64;;;1.64;63.03
70521;BME280;58442;52.716;23.560;2023-04-06T02:46:30;101684.44;;;1.63;63.04
70521;BME280;58442;52.716;23.560;2023-04-06T02:48:41;101682.55;;;1.64;63.07
70521;BME280;58442;52.716;23.560;2023-04-06T02:50:42;101687.92;;;1.64;63.14
70521;BME280;58442;52.716;23.560;2023-04-06T02:52:44;101686.88;;;1.65;63.19
70521;BME280;58442;52.716;23.560;2023-04-06T02:54:45;101682.55;;;1.64;63.23
70521;BME280;58442;52.716;23.560;2023-04-06T02:56:56;101681.77;;;1.63;63.31
70521;BME280;58442;52.716;23.560;2023-04-06T02:58:57;101680.95;;;1.63;63.48
70521;BME280;58442;52.716;23.560;2023-04-06T03:00:59;101684.98;;;1.60;63.68
70521;BME280;58442;52.716;23.560;2023-04-06T03:03:00;101686.55;;;1.56;63.72
70521;BME280;58442;52.716;23.560;2023-04-06T03:05:11;101678.79;;;1.55;63.85
70521;BME280;58442;52.716;23.560;2023-04-06T03:07:12;101684.15;;;1.55;63.98
70521;BME280;58442;52.716;23.560;2023-04-06T03:09:14;101694.07;;;1.54;64.15
70521;BME280;58442;52.716;23.560;2023-04-06T03:11:15;101694.33;;;1.53;64.13
70521;BME280;58442;52.716;23.560;2023-04-06T03:13:26;101691.65;;;1.53;64.23
70521;BME280;58442;52.716;23.560;2023-04-06T03:15:27;101692.45;;;1.53;64.30
70521;BME280;58442;52.716;23.560;2023-04-06T03:17:29;101697.81;;;1.53;64.38
70521;BME280;58442;52.716;23.560;2023-04-06T03:19:30;101695.63;;;1.50;64.43
70521;BME280;58442;52.716;23.560;2023-04-06T03:21:41;101702.07;;;1.49;64.55
70521;BME280;58442;52.716;23.560;2023-04-06T03:23:43;101697.27;;;1.51;64.64
70521;BME280;58442;52.716;23.560;2023-04-06T03:25:44;101700.77;;;1.52;64.63
70521;BME280;58442;52.716;23.560;2023-04-06T03:27:46;101703.17;;;1.53;64.62
70521;BME280;58442;52.716;23.560;2023-04-06T03:29:56;101688.70;;;1.54;64.69
70521;BME280;58442;52.716;23.560;2023-04-06T03:31:57;101688.97;;;1.53;64.76
70521;BME280;58442;52.716;23.560;2023-04-06T03:33:59;101683.89;;;1.51;64.81
70521;BME280;58442;52.716;23.560;2023-04-06T03:36:00;101684.13;;;1.50;64.88
70521;BME280;58442;52.716;23.560;2023-04-06T03:38:11;101682.25;;;1.50;64.96
70521;BME280;58442;52.716;23.560;2023-04-06T03:40:12;101680.13;;;1.52;65.03
70521;BME280;58442;52.716;23.560;2023-04-06T03:42:14;101681.74;;;1.53;65.04
70521;BME280;58442;52.716;23.560;2023-04-06T03:44:15;101674.51;;;1.54;65.05
70521;BME280;58442;52.716;23.560;2023-04-06T03:46:26;101664.86;;;1.53;65.13
70521;BME280;58442;52.716;23.560;2023-04-06T03:48:27;101677.19;;;1.54;65.26
70521;BME280;58442;52.716;23.560;2023-04-06T03:50:29;101681.20;;;1.56;65.30
70521;BME280;58442;52.716;23.560;2023-04-06T03:52:30;101670.48;;;1.56;65.26
70521;BME280;58442;52.716;23.560;2023-04-06T03:54:41;101673.17;;;1.56;65.35
70521;BME280;58442;52.716;23.560;2023-04-06T03:56:43;101673.73;;;1.58;65.43
70521;BME280;58442;52.716;23.560;2023-04-06T03:58:44;101679.62;;;1.60;65.43
70521;BME280;58442;52.716;23.560;2023-04-06T04:00:46;101673.73;;;1.58;65.44
70521;BME280;58442;52.716;23.560;2023-04-06T04:02:56;101672.09;;;1.57;65.52
70521;BME280;58442;52.716;23.560;2023-04-06T04:04:57;101679.87;;;1.54;65.64
70521;BME280;58442;52.716;23.560;2023-04-06T04:06:59;101671.02;;;1.53;65.71
70521;BME280;58442;52.716;23.560;2023-04-06T04:09:00;101661.63;;;1.51;65.77
70521;BME280;58442;52.716;23.560;2023-04-06T04:11:11;101660.58;;;1.52;65.86
70521;BME280;58442;52.716;23.560;2023-04-06T04:13:12;101667.27;;;1.54;66.01
70521;BME280;58442;52.716;23.560;2023-04-06T04:15:14;101654.95;;;1.53;65.96
70521;BME280;58442;52.716;23.560;2023-04-06T04:17:16;101658.69;;;1.57;65.89
70521;BME280;58442;52.716;23.560;2023-04-06T04:19:26;101656.04;;;1.62;65.85
70521;BME280;58442;52.716;23.560;2023-04-06T04:21:29;101659.80;;;1.67;65.84
70521;BME280;58442;52.716;23.560;2023-04-06T04:23:32;101658.73;;;1.68;65.83
70521;BME280;58442;52.716;23.560;2023-04-06T04:25:33;101654.72;;;1.65;65.85
70521;BME280;58442;52.716;23.560;2023-04-06T04:27:41;101647.49;;;1.66;65.91
70521;BME280;58442;52.716;23.560;2023-04-06T04:29:42;101650.17;;;1.66;66.04
70521;BME280;58442;52.716;23.560;2023-04-06T04:31:45;101653.89;;;1.64;66.09
70521;BME280;58442;52.716;23.560;2023-04-06T04:33:46;101655.25;;;1.67;66.12
70521;BME280;58442;52.716;23.560;2023-04-06T04:35:56;101656.05;;;1.68;66.17
70521;BME280;58442;52.716;23.560;2023-04-06T04:37:57;101653.89;;;1.64;66.31
70521;BME280;58442;52.716;23.560;2023-04-06T04:39:59;101650.68;;;1.62;66.44
70521;BME280;58442;52.716;23.560;2023-04-06T04:42:01;101649.88;;;1.62;66.52
70521;BME280;58442;52.716;23.560;2023-04-06T04:44:11;101642.65;;;1.62;66.58
70521;BME280;58442;52.716;23.560;2023-04-06T04:46:13;101644.53;;;1.67;66.59
70521;BME280;58442;52.716;23.560;2023-04-06T04:48:14;101650.16;;;1.71;66.55
70521;BME280;58442;52.716;23.560;2023-04-06T04:50:15;101637.32;;;1.73;66.53
70521;BME280;58442;52.716;23.560;2023-04-06T04:52:26;101641.60;;;1.74;66.53
70521;BME280;58442;52.716;23.560;2023-04-06T04:54:28;101639.46;;;1.76;66.57
70521;BME280;58442;52.716;23.560;2023-04-06T04:56:29;101640.25;;;1.76;66.57
70521;BME280;58442;52.716;23.560;2023-04-06T04:58:31;101636.26;;;1.79;66.58
70521;BME280;58442;52.716;23.560;2023-04-06T05:00:44;101633.58;;;1.79;66.70
70521;BME280;58442;52.716;23.560;2023-04-06T05:02:46;101629.27;;;1.78;66.79
70521;BME280;58442;52.716;23.560;2023-04-06T05:04:47;101632.74;;;1.78;66.91
70521;BME280;58442;52.716;23.560;2023-04-06T05:06:49;101630.90;;;1.79;67.10
70521;BME280;58442;52.716;23.560;2023-04-06T05:08:56;101636.79;;;1.81;66.99
70521;BME280;58442;52.716;23.560;2023-04-06T05:10:58;101640.00;;;1.83;67.05
70521;BME280;58442;52.716;23.560;2023-04-06T05:13:00;101629.55;;;1.81;67.12
70521;BME280;58442;52.716;23.560;2023-04-06T05:15:02;101632.23;;;1.81;67.12
70521;BME280;58442;52.716;23.560;2023-04-06T05:17:11;101633.02;;;1.82;67.26
70521;BME280;58442;52.716;23.560;2023-04-06T05:19:13;101631.43;;;1.81;67.30
70521;BME280;58442;52.716;23.560;2023-04-06T05:21:14;101640.00;;;1.83;67.34
70521;BME280;58442;52.716;23.560;2023-04-06T05:23:16;101626.60;;;1.83;67.35
70521;BME280;58442;52.716;23.560;2023-04-06T05:25:27;101629.80;;;1.85;67.42
70521;BME280;58442;52.716;23.560;2023-04-06T05:27:28;101626.33;;;1.84;67.51
70521;BME280;58442;52.716;23.560;2023-04-06T05:29:30;101628.20;;;1.84;67.57
70521;BME280;58442;52.716;23.560;2023-04-06T05:31:32;101625.28;;;1.85;67.61
70521;BME280;58442;52.716;23.560;2023-04-06T05:33:41;101624.73;;;1.88;67.65
70521;BME280;58442;52.716;23.560;2023-04-06T05:35:43;101619.64;;;1.87;67.79
70521;BME280;58442;52.716;23.560;2023-04-06T05:37:45;101619.90;;;1.90;67.79
70521;BME280;58442;52.716;23.560;2023-04-06T05:39:46;101619.10;;;1.90;67.77
70521;BME280;58442;52.716;23.560;2023-04-06T05:41:56;101606.23;;;1.92;67.89
70521;BME280;58442;52.716;23.560;2023-04-06T05:43:58;101608.66;;;1.94;68.00
70521;BME280;58442;52.716;23.560;2023-04-06T05:45:59;101600.88;;;1.97;68.04
70521;BME280;58442;52.716;23.560;2023-04-06T05:48:02;101606.80;;;1.99;68.00
70521;BME280;58442;52.716;23.560;2023-04-06T05:50:12;101603.27;;;1.99;68.09
70521;BME280;58442;52.716;23.560;2023-04-06T05:52:13;101613.99;;;1.99;68.24
70521;BME280;58442;52.716;23.560;2023-04-06T05:54:15;101607.32;;;2.01;68.29
70521;BME280;58442;52.716;23.560;2023-04-06T05:56:16;101604.89;;;2.05;68.28
70521;BME280;58442;52.716;23.560;2023-04-06T05:58:26;101609.45;;;2.09;68.29
70521;BME280;58442;52.716;23.560;2023-04-06T06:00:28;101611.34;;;2.09;68.35
70521;BME280;58442;52.716;23.560;2023-04-06T06:02:33;101610.81;;;2.07;68.55
70521;BME280;58442;52.716;23.560;2023-04-06T06:04:34;101612.13;;;2.04;68.59
70521;BME280;58442;52.716;23.560;2023-04-06T06:06:41;101614.81;;;2.04;68.64
70521;BME280;58442;52.716;23.560;2023-04-06T06:08:43;101619.10;;;2.05;68.75
70521;BME280;58442;52.716;23.560;2023-04-06T06:10:44;101616.97;;;2.02;68.81
70521;BME280;58442;52.716;23.560;2023-04-06T06:12:46;101607.05;;;2.03;68.83
70521;BME280;58442;52.716;23.560;2023-04-06T06:14:57;101607.58;;;2.05;68.89
70521;BME280;58442;52.716;23.560;2023-04-06T06:16:58;101608.66;;;2.09;68.92
70521;BME280;58442;52.716;23.560;2023-04-06T06:19:00;101613.46;;;2.12;68.87
70521;BME280;58442;52.716;23.560;2023-04-06T06:21:02;101599.81;;;2.13;68.90
70521;BME280;58442;52.716;23.560;2023-04-06T06:23:11;101603.02;;;2.15;68.91
70521;BME280;58442;52.716;23.560;2023-04-06T06:25:13;101597.11;;;2.18;68.97
70521;BME280;58442;52.716;23.560;2023-04-06T06:27:15;101592.82;;;2.23;68.95
70521;BME280;58442;52.716;23.560;2023-04-06T06:29:16;101590.39;;;2.26;68.96
70521;BME280;58442;52.716;23.560;2023-04-06T06:31:27;101591.48;;;2.25;69.01
70521;BME280;58442;52.716;23.560;2023-04-06T06:33:28;101589.59;;;2.26;69.19
70521;BME280;58442;52.716;23.560;2023-04-06T06:35:29;101591.23;;;2.27;69.21
70521;BME280;58442;52.716;23.560;2023-04-06T06:37:31;101593.34;;;2.30;69.21
70521;BME280;58442;52.716;23.560;2023-04-06T06:39:42;101588.79;;;2.30;69.23
70521;BME280;58442;52.716;23.560;2023-04-06T06:41:43;101593.60;;;2.33;69.31
70521;BME280;58442;52.716;23.560;2023-04-06T06:43:44;101594.16;;;2.35;69.32
70521;BME280;58442;52.716;23.560;2023-04-06T06:45:46;101587.43;;;2.38;69.31
70521;BME280;58442;52.716;23.560;2023-04-06T06:47:57;101583.95;;;2.37;69.40
70521;BME280;58442;52.716;23.560;2023-04-06T06:49:58;101584.23;;;2.41;69.42
70521;BME280;58442;52.716;23.560;2023-04-06T06:51:59;101578.86;;;2.41;69.50
70521;BME280;58442;52.716;23.560;2023-04-06T06:54:01;101578.86;;;2.41;69.46
70521;BME280;58442;52.716;23.560;2023-04-06T06:56:12;101577.50;;;2.43;69.63
70521;BME280;58442;52.716;23.560;2023-04-06T06:58:13;101570.78;;;2.46;69.72
70521;BME280;58442;52.716;23.560;2023-04-06T07:00:15;101570.53;;;2.48;69.69
70521;BME280;58442;52.716;23.560;2023-04-06T07:02:17;101571.85;;;2.50;69.71
70521;BME280;58442;52.716;23.560;2023-04-06T07:04:27;101566.73;;;2.54;69.75
70521;BME280;58442;52.716;23.560;2023-04-06T07:06:28;101562.72;;;2.56;69.82
70521;BME280;58442;52.716;23.560;2023-04-06T07:08:29;101567.01;;;2.57;69.86
70521;BME280;58442;52.716;23.560;2023-04-06T07:10:31;101572.89;;;2.59;69.88
70521;BME280;58442;52.716;23.560;2023-04-06T07:12:42;101562.71;;;2.61;69.88
70521;BME280;58442;52.716;23.560;2023-04-06T07:14:43;101569.12;;;2.65;70.07
70521;BME280;58442;52.716;23.560;2023-04-06T07:16:44;101570.20;;;2.69;69.99
70521;BME280;58442;52.716;23.560;2023-04-06T07:18:49;101568.03;;;2.71;69.96
70521;BME280;58442;52.716;23.560;2023-04-06T07:20:57;101571.78;;;2.76;69.98
70521;BME280;58442;52.716;23.560;2023-04-06T07:22:58;101570.14;;;2.80;70.02
70521;BME280;58442;52.716;23.560;2023-04-06T07:25:00;101565.05;;;2.83;69.99
70521;BME280;58442;52.716;23.560;2023-04-06T07:27:01;101565.55;;;2.85;69.98
70521;BME280;58442;52.716;23.560;2023-04-06T07:29:12;101573.61;;;2.85;70.04
70521;BME280;58442;52.716;23.560;2023-04-06T07:31:13;101561.51;;;2.88;70.13
70521;BME280;58442;52.716;23.560;2023-04-06T07:33:15;101567.67;;;2.93;70.08
70521;BME280;58442;52.716;23.560;2023-04-06T07:35:17;101559.08;;;2.96;70.03
70521;BME280;58442;52.716;23.560;2023-04-06T07:37:27;101559.61;;;2.98;70.09
70521;BME280;58442;52.716;23.560;2023-04-06T07:39:28;101564.69;;;3.00;70.16
70521;BME280;58442;52.716;23.560;2023-04-06T07:41:30;101564.69;;;3.00;70.19
70521;BME280;58442;52.716;23.560;2023-04-06T07:43:32;101564.16;;;3.03;70.22
70521;BME280;58442;52.716;23.560;2023-04-06T07:45:42;101570.56;;;3.07;70.26
70521;BME280;58442;52.716;23.560;2023-04-06T07:47:43;101561.97;;;3.10;70.31
70521;BME280;58442;52.716;23.560;2023-04-06T07:49:45;101560.32;;;3.14;70.27
70521;BME280;58442;52.716;23.560;2023-04-06T07:51:46;101557.38;;;3.16;70.26
70521;BME280;58442;52.716;23.560;2023-04-06T07:53:57;101565.39;;;3.21;70.27
70521;BME280;58442;52.716;23.560;2023-04-06T07:55:59;101552.51;;;3.23;70.30
70521;BME280;58442;52.716;23.560;2023-04-06T07:58:00;101549.51;;;3.29;70.24
70521;BME280;58442;52.716;23.560;2023-04-06T08:00:02;101553.52;;;3.32;70.24
70521;BME280;58442;52.716;23.560;2023-04-06T08:02:12;101552.70;;;3.37;70.24
70521;BME280;58442;52.716;23.560;2023-04-06T08:04:13;101548.34;;;3.41;70.22
70521;BME280;58442;52.716;23.560;2023-04-06T08:06:15;101554.78;;;3.45;70.20
70521;BME280;58442;52.716;23.560;2023-04-06T08:08:16;101551.52;;;3.48;70.16
70521;BME280;58442;52.716;23.560;2023-04-06T08:10:27;101543.43;;;3.53;70.14
70521;BME280;58442;52.716;23.560;2023-04-06T08:12:28;101538.28;;;3.56;70.15
70521;BME280;58442;52.716;23.560;2023-04-06T08:14:30;101544.72;;;3.61;70.08
70521;BME280;58442;52.716;23.560;2023-04-06T08:16:31;101540.66;;;3.63;70.08
70521;BME280;58442;52.716;23.560;2023-04-06T08:18:42;101538.22;;;3.67;70.10
70521;BME280;58442;52.716;23.560;2023-04-06T08:20:43;101536.59;;;3.71;70.12
70521;BME280;58442;52.716;23.560;2023-04-06T08:22:45;101535.76;;;3.70;70.12
70521;BME280;58442;52.716;23.560;2023-04-06T08:24:46;101532.52;;;3.73;70.17
70521;BME280;58442;52.716;23.560;2023-04-06T08:26:57;101530.87;;;3.77;70.14
70521;BME280;58442;52.716;23.560;2023-04-06T08:28:58;101541.87;;;3.81;70.12
70521;BME280;58442;52.716;23.560;2023-04-06T08:31:04;101528.94;;;3.83;70.14
70521;BME280;58442;52.716;23.560;2023-04-06T08:33:06;101532.39;;;3.89;70.13
70521;BME280;58442;52.716;23.560;2023-04-06T08:35:12;101526.47;;;3.92;70.07
70521;BME280;58442;52.716;23.560;2023-04-06T08:37:14;101522.11;;;3.96;70.12
70521;BME280;58442;52.716;23.560;2023-04-06T08:39:16;101520.47;;;4.00;70.10
70521;BME280;58442;52.716;23.560;2023-04-06T08:41:17;101520.44;;;4.05;70.00
70521;BME280;58442;52.716;23.560;2023-04-06T08:43:28;101516.06;;;4.09;70.01
70521;BME280;58442;52.716;23.560;2023-04-06T08:45:30;101506.86;;;4.15;69.98
70521;BME280;58442;52.716;23.560;2023-04-06T08:47:31;101513.00;;;4.21;70.02
70521;BME280;58442;52.716;23.560;2023-04-06T08:49:34;101515.40;;;4.22;70.02
70521;BME280;58442;52.716;23.560;2023-04-06T08:51:42;101508.88;;;4.28;70.04
70521;BME280;58442;52.716;23.560;2023-04-06T08:53:44;101505.34;;;4.33;69.83
70521;BME280;58442;52.716;23.560;2023-04-06T08:55:46;101510.38;;;4.39;69.97
70521;BME280;58442;52.716;23.560;2023-04-06T08:57:47;101503.61;;;4.42;69.91
70521;BME280;58442;52.716;23.560;2023-04-06T08:59:57;101504.12;;;4.44;69.89
70521;BME280;58442;52.716;23.560;2023-04-06T09:02:04;101494.39;;;4.48;69.92
70521;BME280;58442;52.716;23.560;2023-04-06T09:04:08;101508.06;;;4.52;69.99
70521;BME280;58442;52.716;23.560;2023-04-06T09:06:13;101499.19;;;4.51;69.93
70521;BME280;58442;52.716;23.560;2023-04-06T09:08:14;101484.93;;;4.51;69.84
70521;BME280;58442;52.716;23.560;2023-04-06T09:10:16;101489.76;;;4.54;69.83
70521;BME280;58442;52.716;23.560;2023-04-06T09:12:24;101481.89;;;4.57;69.87
70521;BME280;58442;52.716;23.560;2023-04-06T09:14:34;101488.52;;;4.65;69.82
70521;BME280;58442;52.716;23.560;2023-04-06T09:16:41;101492.80;;;4.66;69.79
70521;BME280;58442;52.716;23.560;2023-04-06T09:18:49;101493.62;;;4.66;69.81
70521;BME280;58442;52.716;23.560;2023-04-06T09:20:58;101489.55;;;4.69;69.90
70521;BME280;58442;52.716;23.560;2023-04-06T09:22:59;101493.26;;;4.73;69.90
70521;BME280;58442;52.716;23.560;2023-04-06T09:25:01;101489.20;;;4.76;69.81
70521;BME280;58442;52.716;23.560;2023-04-06T09:27:04;101497.49;;;4.79;69.75
70521;BME280;58442;52.716;23.560;2023-04-06T09:29:05;101501.52;;;4.82;69.73
70521;BME280;58442;52.716;23.560;2023-04-06T09:31:07;101490.74;;;4.82;69.77
70521;BME280;58442;52.716;23.560;2023-04-06T09:33:10;101488.05;;;4.82;69.71
70521;BME280;58442;52.716;23.560;2023-04-06T09:35:20;101486.15;;;4.82;69.82
70521;BME280;58442;52.716;23.560;2023-04-06T09:37:21;101478.58;;;4.84;69.86
70521;BME280;58442;52.716;23.560;2023-04-06T09:39:23;101479.61;;;4.88;69.87
70521;BME280;58442;52.716;23.560;2023-04-06T09:41:26;101474.93;;;4.94;69.79
70521;BME280;58442;52.716;23.560;2023-04-06T09:43:34;101478.36;;;5.00;69.71
70521;BME280;58442;52.716;23.560;2023-04-06T09:45:35;101482.95;;;4.99;69.70
70521;BME280;58442;52.716;23.560;2023-04-06T09:47:37;101482.65;;;5.01;69.80
70521;BME280;58442;52.716;23.560;2023-04-06T09:49:41;101476.10;;;5.07;69.80
70521;BME280;58442;52.716;23.560;2023-04-06T09:51:55;101476.04;;;5.12;69.72
70521;BME280;58442;52.716;23.560;2023-04-06T09:53:59;101492.44;;;5.15;69.70
70521;BME280;58442;52.716;23.560;2023-04-06T09:56:08;101480.77;;;5.20;69.69
70521;BME280;58442;52.716;23.560;2023-04-06T09:58:16;101474.70;;;5.28;69.67
70521;BME280;58442;52.716;23.560;2023-04-06T10:00:22;101470.27;;;5.37;69.62
70521;BME280;58442;52.716;23.560;2023-04-06T10:05:05;101461.63;;;5.54;69.45
70521;BME280;58442;52.716;23.560;2023-04-06T10:07:14;101458.55;;;5.61;69.35
70521;BME280;58442;52.716;23.560;2023-04-06T10:09:19;101449.59;;;5.65;69.37
70521;BME280;58442;52.716;23.560;2023-04-06T10:11:24;101448.70;;;5.70;69.32
70521;BME280;58442;52.716;23.560;2023-04-06T10:13:26;101443.00;;;5.71;69.35
70521;BME280;58442;52.716;23.560;2023-04-06T10:15:29;101453.98;;;5.75;69.27
70521;BME280;58442;52.716;23.560;2023-04-06T10:17:31;101451.02;;;5.76;69.23
70521;BME280;58442;52.716;23.560;2023-04-06T10:19:39;101446.41;;;5.77;69.13
70521;BME280;58442;52.716;23.560;2023-04-06T10:21:46;101448.31;;;5.76;69.15
70521;BME280;58442;52.716;23.560;2023-04-06T10:23:52;101449.61;;;5.79;69.14
70521;BME280;58442;52.716;23.560;2023-04-06T10:26:05;101447.01;;;5.88;69.14
70521;BME280;58442;52.716;23.560;2023-04-06T10:28:09;101443.96;;;5.94;69.08
70521;BME280;58442;52.716;23.560;2023-04-06T10:30:15;101442.28;;;5.98;68.94
70521;BME280;58442;52.716;23.560;2023-04-06T10:32:18;101431.48;;;5.98;68.85
70521;BME280;58442;52.716;23.560;2023-04-06T10:34:20;101426.67;;;5.95;68.91
70521;BME280;58442;52.716;23.560;2023-04-06T10:36:23;101422.86;;;5.96;69.01
70521;BME280;58442;52.716;23.560;2023-04-06T10:38:33;101432.86;;;5.96;69.03
70521;BME280;58442;52.716;23.560;2023-04-06T10:40:37;101436.08;;;5.98;69.07
70521;BME280;58442;52.716;23.560;2023-04-06T10:42:39;101434.67;;;6.00;69.05
70521;BME280;58442;52.716;23.560;2023-04-06T10:44:44;101431.67;;;6.02;69.10
70521;BME280;58442;52.716;23.560;2023-04-06T10:46:53;101429.50;;;6.04;69.04
70521;BME280;58442;52.716;23.560;2023-04-06T10:48:56;101428.88;;;6.07;69.01
70521;BME280;58442;52.716;23.560;2023-04-06T10:50:57;101433.66;;;6.10;68.98